Time;durP1;ratioP1;P1;durP2;ratioP2;P2;SDS_P1;SDS_P2;PMS_P1;PMS_P2;Temp;Humidity;BMP_temperature;BMP_pressure;BME280_temperature;BME280_humidity;BME280_pressure;Samples;Min_cycle;Max_cycle;Signal;HPM_P1;HPM_P2
2021/07/31 00:01:57;;;;;;;;;;;;;;;19.27;nan;99919.53;4972992;28;20323;-87
2021/07/31 00:04:22;;;;;;;;;;;;;;;19.23;nan;99918.31;4963379;28;20009;-86
2021/07/31 00:06:49;;;;;;;;;;;;;;;19.23;nan;99929.06;4986468;28;19934;-87
2021/07/31 00:09:14;;;;;;;;;;;;;;;19.26;nan;99930.50;4974293;28;20288;-87
2021/07/31 00:11:40;;;;;;;;;;;;;;;19.27;nan;99916.03;4991604;28;19956;-86
2021/07/31 00:14:05;;;;;;;;;;;;;;;19.21;nan;99925.81;4979724;28;19913;-86
2021/07/31 00:16:30;;;;;;;;;;;;;;;19.21;nan;99931.16;4986058;28;19964;-86
2021/07/31 00:18:55;;;;;;;;;;;;;;;19.19;nan;99929.75;4970776;28;20347;-86
2021/07/31 00:21:21;;;;;;;;;;;;;;;19.14;nan;99935.78;4981266;28;19942;-86
2021/07/31 00:23:46;;;;;;;;;;;;;;;19.06;nan;99928.00;4981243;28;19918;-86
2021/07/31 00:26:11;;;;;;;;;;;;;;;18.99;nan;99932.63;4963147;28;20057;-86
2021/07/31 00:28:36;;;;;;;;;;;;;;;19.00;nan;99929.72;4981649;28;20000;-87
2021/07/31 00:31:04;;;;;;;;;;;;;;;18.95;nan;99936.78;4965495;28;19914;-86
2021/07/31 00:33:29;;;;;;;;;;;;;;;18.99;nan;99932.63;4987729;28;19918;-86
2021/07/31 00:35:54;;;;;;;;;;;;;;;18.90;nan;99934.75;4980941;28;19920;-87
2021/07/31 00:38:19;;;;;;;;;;;;;;;18.79;nan;99799.72;4979235;28;19914;-86
2021/07/31 00:40:44;;;;;;;;;;;;;;;18.75;nan;99797.66;4980458;28;19921;-85
2021/07/31 00:43:10;;;;;;;;;;;;;;;18.72;nan;99792.75;4979790;28;20285;-87
2021/07/31 00:45:35;;;;;;;;;;;;;;;18.70;nan;99789.47;4995646;28;20285;-86
2021/07/31 00:48:01;;;;;;;;;;;;;;;18.62;nan;99782.56;4989549;28;19914;-86
2021/07/31 00:50:27;;;;;;;;;;;;;;;18.63;nan;99778.84;4982516;28;19914;-86
2021/07/31 00:52:53;;;;;;;;;;;;;;;18.61;nan;99780.91;4978612;28;19914;-86
2021/07/31 00:55:20;;;;;;;;;;;;;;;18.56;nan;99773.56;4979205;28;20450;-87
2021/07/31 00:57:47;;;;;;;;;;;;;;;18.52;nan;99776.91;4981237;28;19921;-87
2021/07/31 01:00:12;;;;;;;;;;;;;;;18.51;nan;99775.28;4979223;28;19977;-88
2021/07/31 01:02:37;;;;;;;;;;;;;;;18.50;nan;99777.13;4979009;28;20337;-88
2021/07/31 01:05:03;;;;;;;;;;;;;;;18.47;nan;99785.59;4980609;28;19914;-88
2021/07/31 01:07:28;;;;;;;;;;;;;;;18.39;nan;99783.22;4963582;28;20430;-88
2021/07/31 01:09:54;;;;;;;;;;;;;;;18.35;nan;99776.66;4978987;28;19913;-88
2021/07/31 01:12:19;;;;;;;;;;;;;;;;;;4965196;28;19917;-87
2021/07/31 01:14:44;;;;;;;;;;;;;;;;;;4978795;28;19918;-87
2021/07/31 01:17:12;;;;;;;;;;;;;;;18.22;nan;99775.75;4979181;28;19969;-87
2021/07/31 01:19:38;;;;;;;;;;;;;;;18.20;nan;99772.47;4974806;28;19969;-87
2021/07/31 01:22:03;;;;;;;;;;;;;;;18.20;nan;99779.69;4978790;28;19914;-88
2021/07/31 01:24:28;;;;;;;;;;;;;;;18.10;nan;99774.84;4977917;28;19918;-87
2021/07/31 01:26:54;;;;;;;;;;;;;;;18.08;nan;99776.91;4978537;28;19922;-86
2021/07/31 01:29:19;;;;;;;;;;;;;;;18.07;nan;99785.13;4962518;28;19922;-87
2021/07/31 01:31:47;;;;;;;;;;;;;;;17.97;nan;99791.81;4979896;28;19914;-87
2021/07/31 01:34:12;;;;;;;;;;;;;;;17.92;nan;99786.28;4979374;28;19914;-87
2021/07/31 01:36:37;;;;;;;;;;;;;;;17.82;nan;99791.31;4962519;28;19984;-86
2021/07/31 01:39:03;;;;;;;;;;;;;;;17.74;nan;99791.56;4961998;28;19921;-87
2021/07/31 01:41:28;;;;;;;;;;;;;;;17.70;nan;99801.84;4979474;28;19914;-86
2021/07/31 01:43:54;;;;;;;;;;;;;;;17.67;nan;99796.94;4979514;28;20305;-87
2021/07/31 01:46:20;;;;;;;;;;;;;;;17.62;nan;99794.09;4976335;28;19924;-87
2021/07/31 01:48:45;;;;;;;;;;;;;;;17.60;nan;99786.28;4976548;28;19921;-87
2021/07/31 01:51:11;;;;;;;;;;;;;;;17.55;nan;99788.78;4973916;28;19921;-86
2021/07/31 01:53:36;;;;;;;;;;;;;;;17.56;nan;99795.78;4961664;28;19981;-88
2021/07/31 01:56:01;;;;;;;;;;;;;;;17.61;nan;99787.94;4971260;28;19918;-87
2021/07/31 01:58:26;;;;;;;;;;;;;;;17.54;nan;99781.81;4978043;28;19918;-87
2021/07/31 02:00:52;;;;;;;;;;;;;;;17.56;nan;99785.06;4975172;28;19921;-86
2021/07/31 02:03:18;;;;;;;;;;;;;;;17.58;nan;99793.69;4979792;28;19921;-87
2021/07/31 02:05:43;;;;;;;;;;;;;;;17.55;nan;99794.16;4978422;28;19926;-86
2021/07/31 02:08:08;;;;;;;;;;;;;;;17.50;nan;99790.50;4961440;28;19914;-87
2021/07/31 02:10:33;;;;;;;;;;;;;;;17.42;nan;99788.88;4976413;28;19909;-87
2021/07/31 02:12:58;;;;;;;;;;;;;;;17.41;nan;99787.25;4980477;28;19921;-87
2021/07/31 02:15:25;;;;;;;;;;;;;;;;;;4981120;28;19953;-86
2021/07/31 02:17:50;;;;;;;;;;;;;;;17.31;nan;99782.38;4957982;29;20323;-87
2021/07/31 02:20:15;;;;;;;;;;;;;;;17.27;nan;99791.03;4958213;29;19921;-87
2021/07/31 02:22:40;;;;;;;;;;;;;;;17.23;nan;99790.59;4975844;28;19960;-86
2021/07/31 02:25:06;;;;;;;;;;;;;;;17.16;nan;99779.97;4963762;28;19922;-87
2021/07/31 02:27:31;;;;;;;;;;;;;;;17.14;nan;99792.72;4980294;28;20520;-87
2021/07/31 02:29:56;;;;;;;;;;;;;;;17.14;nan;99787.38;4977108;28;19914;-87
2021/07/31 02:32:22;;;;;;;;;;;;;;;17.15;nan;99786.34;4976195;28;19914;-87
2021/07/31 02:34:48;;;;;;;;;;;;;;;17.18;nan;99788.59;4976289;28;19987;-87
2021/07/31 02:37:14;;;;;;;;;;;;;;;17.24;nan;99796.78;4977617;28;20349;-87
2021/07/31 02:39:39;;;;;;;;;;;;;;;17.26;nan;99789.41;4966858;28;19918;-88
2021/07/31 02:42:04;;;;;;;;;;;;;;;17.23;nan;99789.78;4975793;28;20017;-87
2021/07/31 02:44:29;;;;;;;;;;;;;;;17.17;nan;99792.28;4980105;28;19968;-87
2021/07/31 02:46:55;;;;;;;;;;;;;;;17.11;nan;99792.31;4972650;28;20394;-87
2021/07/31 02:49:20;;;;;;;;;;;;;;;17.06;nan;99784.94;4972954;28;20561;-87
2021/07/31 02:51:47;;;;;;;;;;;;;;;16.98;nan;99783.34;4973158;28;19913;-87
2021/07/31 02:54:12;;;;;;;;;;;;;;;16.88;nan;99787.50;4969567;28;19925;-86
2021/07/31 02:56:37;;;;;;;;;;;;;;;16.85;nan;99782.56;4956479;28;19918;-87
2021/07/31 02:59:02;;;;;;;;;;;;;;;16.78;nan;99785.25;4973865;28;19914;-86
2021/07/31 03:01:28;;;;;;;;;;;;;;;16.67;nan;99775.22;4972658;28;20403;-86
2021/07/31 03:03:54;;;;;;;;;;;;;;;16.63;nan;99790.81;4973658;28;20017;-87
2021/07/31 03:06:19;;;;;;;;;;;;;;;16.62;nan;99778.50;4967734;28;19928;-87
2021/07/31 03:08:45;;;;;;;;;;;;;;;16.54;nan;99779.56;4974169;28;19914;-86
2021/07/31 03:11:10;;;;;;;;;;;;;;;16.50;nan;99778.31;4959104;28;19980;-86
2021/07/31 03:13:35;;;;;;;;;;;;;;;16.50;nan;99780.19;4975779;28;20293;-86
2021/07/31 03:16:01;;;;;;;;;;;;;;;16.57;nan;99748.97;4988784;28;19937;-87
2021/07/31 03:18:26;;;;;;;;;;;;;;;16.56;nan;99780.19;4972090;28;19952;-87
2021/07/31 03:20:52;;;;;;;;;;;;;;;16.61;nan;99781.38;4972659;28;19969;-87
2021/07/31 03:23:21;;;;;;;;;;;;;;;16.59;nan;99778.09;4972591;28;19918;-87
2021/07/31 03:25:48;;;;;;;;;;;;;;;16.59;nan;99783.44;4972541;28;20392;-87
2021/07/31 03:28:14;;;;;;;;;;;;;;;16.53;nan;99780.56;4972172;28;20278;-86
2021/07/31 03:30:43;;;;;;;;;;;;;;;16.52;nan;99778.13;4972602;28;19914;-87
2021/07/31 03:33:09;;;;;;;;;;;;;;;16.50;nan;99774.84;4973765;28;19921;-87
2021/07/31 03:35:35;;;;;;;;;;;;;;;16.41;nan;99771.56;4973925;28;19914;-87
2021/07/31 03:38:00;;;;;;;;;;;;;;;16.28;nan;99776.91;4977727;28;19923;-87
2021/07/31 03:40:26;;;;;;;;;;;;;;;16.24;nan;99776.53;4977010;28;20001;-87
2021/07/31 03:42:51;;;;;;;;;;;;;;;16.21;nan;99779.63;4976210;28;19924;-87
2021/07/31 03:45:16;;;;;;;;;;;;;;;16.19;nan;99781.66;4976246;28;19913;-87
2021/07/31 03:47:41;;;;;;;;;;;;;;;16.20;nan;99785.97;4976108;28;20274;-87
2021/07/31 03:50:07;;;;;;;;;;;;;;;16.12;nan;99788.84;4966345;28;19914;-87
2021/07/31 03:52:32;;;;;;;;;;;;;;;;;;4960232;28;19921;-87
2021/07/31 03:54:57;;;;;;;;;;;;;;;15.92;nan;99784.34;4967844;28;20021;-86
2021/07/31 03:57:22;;;;;;;;;;;;;;;15.82;nan;99778.56;4977445;28;19933;-86
2021/07/31 03:59:47;;;;;;;;;;;;;;;15.74;nan;99773.47;4975445;28;19913;-86
2021/07/31 04:02:13;;;;;;;;;;;;;;;15.74;nan;99778.78;4977060;28;20009;-87
2021/07/31 04:04:38;;;;;;;;;;;;;;;15.77;nan;99775.72;4971644;28;20247;-86
2021/07/31 04:07:03;;;;;;;;;;;;;;;15.82;nan;99783.09;4963823;28;20388;-87
2021/07/31 04:09:29;;;;;;;;;;;;;;;15.83;nan;99790.09;4982039;28;19918;-87
2021/07/31 04:11:54;;;;;;;;;;;;;;;15.75;nan;99787.59;4964580;28;19914;-87
2021/07/31 04:14:19;;;;;;;;;;;;;;;15.71;nan;99797.88;4980151;28;19921;-86
2021/07/31 04:16:44;;;;;;;;;;;;;;;15.62;nan;99783.88;4981848;28;19921;-87
2021/07/31 04:19:11;;;;;;;;;;;;;;;15.58;nan;99787.13;4979665;28;20289;-87
2021/07/31 04:21:36;;;;;;;;;;;;;;;15.56;nan;99798.00;4980464;28;19914;-87
2021/07/31 04:24:02;;;;;;;;;;;;;;;15.49;nan;99789.16;4966421;28;19925;-87
2021/07/31 04:26:27;;;;;;;;;;;;;;;15.46;nan;99814.38;4963736;28;19929;-86
2021/07/31 04:28:52;;;;;;;;;;;;;;;15.49;nan;99811.31;4963798;28;19972;-87
2021/07/31 04:31:17;;;;;;;;;;;;;;;15.59;nan;99816.25;4964242;28;19942;-88
2021/07/31 04:33:43;;;;;;;;;;;;;;;15.75;nan;99824.91;4964341;28;20001;-88
2021/07/31 04:36:09;;;;;;;;;;;;;;;15.78;nan;99824.50;4980784;28;19945;-87
2021/07/31 04:38:34;;;;;;;;;;;;;;;15.84;nan;99829.03;4964597;28;19946;-89
2021/07/31 04:41:00;;;;;;;;;;;;;;;15.95;nan;99831.09;4982978;28;19937;-88
2021/07/31 04:43:25;;;;;;;;;;;;;;;16.02;nan;99837.28;5000453;28;19917;-88
2021/07/31 04:45:52;;;;;;;;;;;;;;;16.07;nan;99853.47;4979645;28;19914;-87
2021/07/31 04:48:17;;;;;;;;;;;;;;;16.10;nan;99861.06;4980494;28;20394;-87
2021/07/31 04:50:42;;;;;;;;;;;;;;;16.16;nan;99845.25;4980741;28;19942;-87
2021/07/31 04:53:07;;;;;;;;;;;;;;;16.19;nan;99871.53;4980908;28;20008;-88
2021/07/31 04:55:32;;;;;;;;;;;;;;;16.25;nan;99879.53;4963558;28;19918;-87
2021/07/31 04:57:57;;;;;;;;;;;;;;;16.33;nan;99881.19;4963890;28;19918;-86
2021/07/31 05:00:23;;;;;;;;;;;;;;;16.33;nan;99866.00;4972423;28;19918;-86
2021/07/31 05:02:48;;;;;;;;;;;;;;;16.39;nan;99868.88;4978830;28;20358;-86
2021/07/31 05:05:13;;;;;;;;;;;;;;;16.42;nan;99879.97;4963672;28;19941;-86
2021/07/31 05:07:38;;;;;;;;;;;;;;;16.53;nan;99875.84;4964377;28;19918;-88
2021/07/31 05:10:04;;;;;;;;;;;;;;;16.57;nan;99877.06;4963693;28;19947;-87
2021/07/31 05:12:29;;;;;;;;;;;;;;;16.60;nan;99862.50;4980297;28;20437;-85
2021/07/31 05:14:54;;;;;;;;;;;;;;;16.67;nan;99823.25;4963435;28;19914;-85
2021/07/31 05:17:20;;;;;;;;;;;;;;;16.71;nan;99824.50;4980688;28;19921;-87
2021/07/31 05:19:46;;;;;;;;;;;;;;;16.79;nan;99826.13;4980075;28;20129;-87
2021/07/31 05:22:11;;;;;;;;;;;;;;;16.87;nan;99801.88;4968004;28;19914;-87
2021/07/31 05:24:36;;;;;;;;;;;;;;;16.86;nan;99816.25;4963316;28;19925;-86
2021/07/31 05:27:02;;;;;;;;;;;;;;;16.91;nan;99819.94;4978948;28;19925;-87
2021/07/31 05:29:27;;;;;;;;;;;;;;;17.01;nan;99824.00;4970063;28;19957;-88
2021/07/31 05:31:52;;;;;;;;;;;;;;;17.04;nan;99823.56;4963120;28;19914;-88
2021/07/31 05:34:17;;;;;;;;;;;;;;;17.22;nan;99828.25;4979466;28;20358;-87
2021/07/31 05:36:42;;;;;;;;;;;;;;;;;;4971166;28;19921;-87
2021/07/31 05:39:08;;;;;;;;;;;;;;;17.83;nan;99843.78;4962229;28;19914;-88
2021/07/31 05:41:33;;;;;;;;;;;;;;;;;;4963556;28;19914;-87
2021/07/31 05:43:58;;;;;;;;;;;;;;;18.54;nan;99869.34;4968143;28;19945;-86
2021/07/31 05:46:23;;;;;;;;;;;;;;;18.82;nan;99863.53;4978385;28;19918;-86
2021/07/31 05:48:50;;;;;;;;;;;;;;;19.16;nan;99869.34;4980287;28;19983;-87
2021/07/31 05:51:16;;;;;;;;;;;;;;;19.34;nan;99876.56;4962662;28;19914;-88
2021/07/31 05:53:41;;;;;;;;;;;;;;;19.57;nan;99875.88;4971052;28;19925;-86
2021/07/31 05:56:11;;;;;;;;;;;;;;;19.74;nan;99876.06;4978926;28;20285;-87
2021/07/31 05:58:37;;;;;;;;;;;;;;;19.91;nan;99870.88;4969995;28;19964;-87
2021/07/31 06:01:06;;;;;;;;;;;;;;;20.26;nan;99878.16;4962106;28;19914;-87
2021/07/31 06:03:31;;;;;;;;;;;;;;;20.72;nan;99884.66;4979294;28;19922;-88
2021/07/31 06:05:57;;;;;;;;;;;;;;;20.96;nan;99882.78;4962522;28;19914;-86
2021/07/31 06:08:22;;;;;;;;;;;;;;;21.10;nan;99883.34;4964783;28;19921;-86
2021/07/31 06:10:47;;;;;;;;;;;;;;;21.43;nan;99890.78;4979174;28;19918;-88
2021/07/31 06:13:12;;;;;;;;;;;;;;;21.37;nan;99880.94;4984663;28;19924;-87
2021/07/31 06:15:40;;;;;;;;;;;;;;;21.55;nan;99894.25;4981309;28;20048;-86
2021/07/31 06:18:05;;;;;;;;;;;;;;;21.89;nan;99886.25;4984165;28;20293;-88
2021/07/31 06:20:32;;;;;;;;;;;;;;;22.19;nan;99885.13;4978790;28;19977;-85
2021/07/31 06:22:57;;;;;;;;;;;;;;;22.41;nan;99904.13;4979379;28;20017;-86
2021/07/31 06:25:23;;;;;;;;;;;;;;;22.64;nan;99897.72;4979037;28;20516;-88
2021/07/31 06:27:48;;;;;;;;;;;;;;;22.84;nan;99906.13;4966909;28;19925;-88
2021/07/31 06:30:13;;;;;;;;;;;;;;;22.99;nan;99905.53;4978778;28;19957;-87
2021/07/31 06:32:38;;;;;;;;;;;;;;;;;;4977499;28;19934;-88
2021/07/31 06:35:04;;;;;;;;;;;;;;;23.06;nan;99905.38;4978911;28;19921;-89
2021/07/31 06:37:29;;;;;;;;;;;;;;;23.27;nan;99895.66;4977548;28;19918;-87
2021/07/31 06:39:54;;;;;;;;;;;;;;;23.65;nan;99897.44;4977505;28;19914;-89
2021/07/31 06:42:20;;;;;;;;;;;;;;;23.93;nan;100007.13;4974291;28;19918;-87
2021/07/31 06:44:45;;;;;;;;;;;;;;;24.35;nan;100011.88;4978794;28;19969;-88
2021/07/31 06:47:10;;;;;;;;;;;;;;;24.67;nan;100013.84;4962564;28;19950;-88
2021/07/31 06:49:35;;;;;;;;;;;;;;;24.76;nan;100023.09;4998725;28;19914;-87
2021/07/31 06:52:00;;;;;;;;;;;;;;;25.17;nan;100012.59;4978469;28;19925;-88
2021/07/31 06:54:26;;;;;;;;;;;;;;;25.13;nan;100022.28;4976044;28;20020;-87
2021/07/31 06:56:51;;;;;;;;;;;;;;;25.32;nan;100017.28;4970857;28;19945;-88
2021/07/31 06:59:21;;;;;;;;;;;;;;;25.38;nan;100024.34;4981101;28;19914;-87
2021/07/31 07:01:46;;;;;;;;;;;;;;;25.67;nan;100018.56;4969759;28;20063;-87
2021/07/31 07:04:12;;;;;;;;;;;;;;;26.09;nan;100016.81;4981623;28;20007;-89
2021/07/31 07:06:39;;;;;;;;;;;;;;;25.89;nan;100010.28;4980771;28;19914;-88
2021/07/31 07:09:04;;;;;;;;;;;;;;;26.21;nan;100014.69;4979063;28;19921;-88
2021/07/31 07:11:29;;;;;;;;;;;;;;;25.89;nan;100021.09;4981670;28;19942;-86
2021/07/31 07:13:54;;;;;;;;;;;;;;;26.13;nan;100023.34;4965053;28;19914;-88
2021/07/31 07:16:20;;;;;;;;;;;;;;;26.04;nan;100023.03;4981484;28;20405;-88
2021/07/31 07:18:45;;;;;;;;;;;;;;;26.45;nan;100028.53;4964935;28;19990;-88
2021/07/31 07:21:11;;;;;;;;;;;;;;;26.19;nan;100022.25;4974891;28;20274;-88
2021/07/31 07:23:37;;;;;;;;;;;;;;;26.05;nan;100019.25;4981509;28;20441;-88
2021/07/31 07:26:02;;;;;;;;;;;;;;;25.56;nan;100023.09;4972266;28;19914;-87
2021/07/31 07:28:27;;;;;;;;;;;;;;;25.39;nan;100017.88;4964264;28;19914;-87
2021/07/31 07:30:53;;;;;;;;;;;;;;;25.25;nan;100021.31;4970728;28;19914;-88
2021/07/31 07:33:18;;;;;;;;;;;;;;;25.46;nan;100024.94;4981706;28;19921;-87
2021/07/31 07:35:43;;;;;;;;;;;;;;;25.25;nan;100018.59;4981657;28;19913;-86
2021/07/31 07:38:08;;;;;;;;;;;;;;;24.83;nan;100019.34;4981313;28;20326;-88
2021/07/31 07:40:34;;;;;;;;;;;;;;;24.60;nan;100010.53;4964872;28;19918;-87
2021/07/31 07:43:01;;;;;;;;;;;;;;;24.25;nan;100009.09;4963935;28;19922;-86
2021/07/31 07:45:26;;;;;;;;;;;;;;;24.53;nan;100016.16;4981769;28;19918;-87
2021/07/31 07:47:51;;;;;;;;;;;;;;;25.37;nan;100011.91;4988973;28;20427;-87
2021/07/31 07:50:16;;;;;;;;;;;;;;;25.82;nan;100012.38;4979248;28;19917;-86
2021/07/31 07:52:41;;;;;;;;;;;;;;;25.13;nan;100010.66;4981424;28;19914;-89
2021/07/31 07:55:07;;;;;;;;;;;;;;;25.41;nan;100018.44;4979370;28;19918;-87
2021/07/31 07:57:32;;;;;;;;;;;;;;;25.32;nan;100011.06;4981367;28;20277;-88
2021/07/31 07:59:57;;;;;;;;;;;;;;;25.40;nan;100016.78;4979941;28;20506;-87
2021/07/31 08:02:22;;;;;;;;;;;;;;;25.67;nan;100018.56;4980240;28;19914;-87
2021/07/31 08:04:48;;;;;;;;;;;;;;;25.97;nan;100012.44;4981268;28;19922;-89
2021/07/31 08:07:13;;;;;;;;;;;;;;;26.47;nan;100016.34;4964254;28;19914;-87
2021/07/31 08:09:39;;;;;;;;;;;;;;;26.10;nan;100016.56;4981489;28;19921;-88
2021/07/31 08:12:04;;;;;;;;;;;;;;;26.13;nan;100015.22;4975336;28;19914;-87
2021/07/31 08:14:30;;;;;;;;;;;;;;;25.48;nan;100026.31;4982520;28;19914;-87
2021/07/31 08:16:57;;;;;;;;;;;;;;;25.47;nan;100023.88;4999258;28;19964;-88
2021/07/31 08:19:22;;;;;;;;;;;;;;;25.31;nan;100020.25;4980191;28;19950;-87
2021/07/31 08:21:47;;;;;;;;;;;;;;;25.60;nan;100018.00;4971598;28;20414;-88
2021/07/31 08:24:12;;;;;;;;;;;;;;;25.47;nan;100015.75;4962970;28;19964;-88
2021/07/31 08:26:37;;;;;;;;;;;;;;;25.22;nan;100019.94;4968798;28;19925;-87
2021/07/31 08:29:03;;;;;;;;;;;;;;;25.35;nan;100018.66;4981253;28;19914;-88
2021/07/31 08:31:28;;;;;;;;;;;;;;;26.01;nan;100021.69;4980176;28;19948;-87
2021/07/31 08:33:53;;;;;;;;;;;;;;;26.51;nan;100018.53;4979460;28;19920;-88
2021/07/31 08:36:18;;;;;;;;;;;;;;;26.62;nan;100020.19;4979884;28;19929;-88
2021/07/31 08:38:43;;;;;;;;;;;;;;;25.74;nan;100024.56;4963938;28;19925;-86
2021/07/31 08:41:10;;;;;;;;;;;;;;;25.35;nan;100021.38;4963358;28;19918;-88
2021/07/31 08:43:35;;;;;;;;;;;;;;;25.06;nan;100012.78;4963774;28;19946;-89
2021/07/31 08:46:05;;;;;;;;;;;;;;;25.22;nan;100014.53;4980379;28;19984;-88
2021/07/31 08:48:31;;;;;;;;;;;;;;;25.58;nan;100015.53;4992262;28;19937;-88
2021/07/31 08:50:57;;;;;;;;;;;;;;;26.23;nan;100017.94;4975202;28;19997;-88
2021/07/31 08:53:24;;;;;;;;;;;;;;;27.22;nan;100012.28;4962564;28;19918;-88
2021/07/31 08:55:50;;;;;;;;;;;;;;;26.96;nan;100015.03;4972948;28;19918;-87
2021/07/31 08:58:15;;;;;;;;;;;;;;;26.96;nan;100009.59;4965280;28;19921;-88
2021/07/31 09:00:40;;;;;;;;;;;;;;;26.85;nan;100002.56;4980317;28;19945;-87
2021/07/31 09:03:06;;;;;;;;;;;;;;;26.77;nan;100003.91;4963201;28;19973;-87
2021/07/31 09:05:32;;;;;;;;;;;;;;;27.59;nan;100003.75;4963449;28;19918;-87
2021/07/31 09:07:58;;;;;;;;;;;;;;;27.69;nan;100011.84;4963365;28;19934;-88
2021/07/31 09:10:27;;;;;;;;;;;;;;;27.41;nan;100009.78;4962500;28;19993;-86
2021/07/31 09:13:20;;;;;;;;;;;;;;;26.95;nan;100013.38;4982115;28;19933;-87
2021/07/31 09:15:51;;;;;;;;;;;;;;;26.83;nan;100019.09;4988098;28;19918;-87
2021/07/31 09:18:22;;;;;;;;;;;;;;;26.41;nan;100012.00;4968213;28;20293;-88
2021/07/31 09:21:07;;;;;;;;;;;;;;;25.71;nan;100008.00;4979987;28;19921;-89
2021/07/31 09:23:36;;;;;;;;;;;;;;;25.11;nan;100010.91;4973754;28;19918;-86
2021/07/31 09:26:01;;;;;;;;;;;;;;;24.87;nan;100005.06;4978114;28;19918;-87
2021/07/31 09:28:27;;;;;;;;;;;;;;;24.63;nan;100007.31;4968012;28;19923;-87
2021/07/31 09:30:53;;;;;;;;;;;;;;;24.58;nan;100009.97;4964322;28;19969;-88
2021/07/31 09:33:18;;;;;;;;;;;;;;;24.40;nan;100008.41;4962141;28;20571;-87
2021/07/31 09:35:51;;;;;;;;;;;;;;;24.12;nan;100006.78;4979903;28;19964;-86
2021/07/31 09:38:16;;;;;;;;;;;;;;;24.13;nan;100003.03;4980873;28;19914;-89
2021/07/31 09:40:41;;;;;;;;;;;;;;;24.45;nan;100013.06;4980231;28;19933;-87
2021/07/31 09:43:13;;;;;;;;;;;;;;;24.14;nan;100002.75;4969774;28;19929;-86
2021/07/31 09:45:38;;;;;;;;;;;;;;;24.65;nan;100007.88;4977573;28;19914;-87
2021/07/31 09:48:04;;;;;;;;;;;;;;;25.19;nan;100007.75;4965400;28;20208;-87
2021/07/31 09:50:49;;;;;;;;;;;;;;;25.20;nan;100008.56;4978611;28;20563;-87
2021/07/31 09:53:15;;;;;;;;;;;;;;;25.21;nan;100008.28;4969677;28;19989;-86
2021/07/31 09:55:43;;;;;;;;;;;;;;;25.10;nan;99998.47;4997270;28;19945;-87
2021/07/31 09:58:10;;;;;;;;;;;;;;;25.10;nan;100003.88;4980154;28;19921;-88
2021/07/31 10:00:40;;;;;;;;;;;;;;;24.72;nan;99994.94;4964833;28;19918;-87
2021/07/31 10:03:05;;;;;;;;;;;;;;;25.07;nan;99987.34;4979764;28;19918;-86
2021/07/31 10:05:31;;;;;;;;;;;;;;;25.26;nan;99995.88;4967031;28;20006;-86
2021/07/31 10:07:56;;;;;;;;;;;;;;;25.67;nan;99993.34;4981177;28;19924;-87
2021/07/31 10:10:21;;;;;;;;;;;;;;;25.52;nan;99984.09;4966886;28;20624;-88
2021/07/31 10:12:47;;;;;;;;;;;;;;;25.89;nan;99985.91;4978431;28;19997;-88
2021/07/31 10:15:13;;;;;;;;;;;;;;;26.05;nan;99981.31;4967103;28;19918;-88
2021/07/31 10:17:41;;;;;;;;;;;;;;;25.99;nan;99971.56;4962080;28;19921;-90
2021/07/31 10:20:06;;;;;;;;;;;;;;;26.26;nan;99971.31;4966308;28;19945;-88
2021/07/31 10:22:44;;;;;;;;;;;;;;;26.11;nan;99974.03;4961567;28;19937;-88
2021/07/31 10:25:11;;;;;;;;;;;;;;;26.10;nan;99975.94;4973967;28;19929;-88
2021/07/31 10:27:36;;;;;;;;;;;;;;;26.26;nan;99974.84;4945924;28;20026;-88
2021/07/31 10:30:02;;;;;;;;;;;;;;;26.44;nan;99973.50;4986414;28;19930;-85
2021/07/31 10:32:32;;;;;;;;;;;;;;;26.42;nan;99972.97;4977588;28;19918;-87
2021/07/31 10:35:00;;;;;;;;;;;;;;;25.82;nan;99971.75;4986453;28;19953;-86
2021/07/31 10:37:29;;;;;;;;;;;;;;;25.59;nan;99971.13;4971753;28;19918;-86
2021/07/31 10:39:54;;;;;;;;;;;;;;;25.55;nan;99964.63;4978102;28;20029;-87
2021/07/31 10:42:20;;;;;;;;;;;;;;;25.51;nan;99962.72;4959305;28;20402;-88
2021/07/31 10:45:04;;;;;;;;;;;;;;;25.55;nan;99972.75;4959377;28;19922;-85
2021/07/31 10:47:29;;;;;;;;;;;;;;;25.72;nan;99963.56;4976684;28;19971;-86
2021/07/31 10:49:55;;;;;;;;;;;;;;;25.59;nan;99956.78;4976792;28;20004;-87
2021/07/31 10:52:38;;;;;;;;;;;;;;;25.70;nan;99963.06;4959775;28;19920;-85
2021/07/31 10:55:04;;;;;;;;;;;;;;;26.00;nan;99963.16;4976511;28;19926;-87
2021/07/31 10:58:01;;;;;;;;;;;;;;;26.10;nan;99966.97;4977297;28;19914;-88
2021/07/31 11:00:28;;;;;;;;;;;;;;;25.89;nan;99958.81;4948221;28;19922;-86
2021/07/31 11:02:54;;;;;;;;;;;;;;;26.27;nan;99960.22;4959719;28;19922;-87
2021/07/31 11:05:20;;;;;;;;;;;;;;;26.06;nan;99959.38;4976707;28;20033;-85
2021/07/31 11:07:57;;;;;;;;;;;;;;;26.18;nan;99963.72;4960468;28;19914;-86
2021/07/31 11:10:39;;;;;;;;;;;;;;;26.40;nan;99952.63;4976765;28;19914;-86
2021/07/31 11:13:05;;;;;;;;;;;;;;;26.57;nan;99960.53;4980801;28;19909;-88
2021/07/31 11:15:31;;;;;;;;;;;;;;;26.39;nan;99972.72;4978882;28;20322;-86
2021/07/31 11:17:57;;;;;;;;;;;;;;;26.36;nan;99967.81;4968033;28;20009;-87
2021/07/31 11:20:26;;;;;;;;;;;;;;;26.43;nan;99961.06;4974507;28;20352;-86
2021/07/31 11:22:55;;;;;;;;;;;;;;;26.41;nan;99962.38;4967873;28;19918;-86
2021/07/31 11:25:22;;;;;;;;;;;;;;;26.22;nan;99962.13;4975895;28;19940;-86
2021/07/31 11:27:58;;;;;;;;;;;;;;;26.12;nan;99959.38;4978275;28;19914;-86
2021/07/31 11:30:52;;;;;;;;;;;;;;;26.26;nan;99957.78;4975629;28;19918;-87
2021/07/31 11:33:25;;;;;;;;;;;;;;;26.23;nan;99961.84;4963159;28;19910;-87
2021/07/31 11:35:51;;;;;;;;;;;;;;;26.32;nan;99966.75;4992796;28;19921;-85
2021/07/31 11:38:30;;;;;;;;;;;;;;;26.41;nan;99963.22;4958824;28;19957;-86
2021/07/31 11:40:59;;;;;;;;;;;;;;;26.87;nan;99970.53;4958661;28;19914;-87
2021/07/31 11:43:25;;;;;;;;;;;;;;;26.79;nan;99974.63;4958516;28;19953;-87
2021/07/31 11:45:50;;;;;;;;;;;;;;;26.50;nan;99968.88;4975852;28;19921;-88
2021/07/31 11:48:15;;;;;;;;;;;;;;;26.57;nan;99963.22;4985497;28;19921;-86
2021/07/31 11:51:00;;;;;;;;;;;;;;;26.62;nan;99968.66;4983557;28;20052;-87
2021/07/31 11:53:25;;;;;;;;;;;;;;;26.90;nan;99970.78;4958789;28;20281;-88
2021/07/31 11:55:50;;;;;;;;;;;;;;;26.47;nan;99964.03;4958955;28;19918;-85
2021/07/31 11:58:16;;;;;;;;;;;;;;;25.99;nan;99966.94;4979786;28;19920;-86
2021/07/31 12:00:41;;;;;;;;;;;;;;;25.89;nan;99960.72;4979003;28;19956;-86
2021/07/31 12:03:25;;;;;;;;;;;;;;;25.71;nan;99954.66;4979077;28;20438;-86
2021/07/31 12:05:50;;;;;;;;;;;;;;;25.68;nan;99971.44;4961553;28;19918;-86
2021/07/31 12:08:18;;;;;;;;;;;;;;;25.81;nan;99964.69;4961565;28;19918;-87
2021/07/31 12:10:47;;;;;;;;;;;;;;;25.54;nan;99964.88;4961510;28;19922;-86
2021/07/31 12:13:12;;;;;;;;;;;;;;;25.94;nan;99964.22;4983596;28;19913;-86
2021/07/31 12:15:42;;;;;;;;;;;;;;;26.27;nan;99968.34;4988035;28;20021;-86
2021/07/31 12:18:08;;;;;;;;;;;;;;;26.26;nan;99965.91;4962984;28;19964;-86
2021/07/31 12:20:35;;;;;;;;;;;;;;;26.19;nan;99970.78;4978352;28;20185;-88
2021/07/31 12:23:00;;;;;;;;;;;;;;;26.47;nan;99966.72;4975439;28;19925;-88
2021/07/31 12:25:29;;;;;;;;;;;;;;;26.10;nan;99964.25;4978082;28;19914;-88
2021/07/31 12:28:02;;;;;;;;;;;;;;;26.13;nan;99955.59;4978472;28;19925;-87
2021/07/31 12:30:39;;;;;;;;;;;;;;;26.22;nan;99959.41;4971023;28;19925;-87
2021/07/31 12:33:05;;;;;;;;;;;;;;;26.41;nan;99952.38;4981013;28;20438;-87
2021/07/31 12:35:31;;;;;;;;;;;;;;;26.53;nan;99956.69;4977702;28;19964;-87
2021/07/31 12:37:57;;;;;;;;;;;;;;;26.40;nan;99958.88;4980115;28;20270;-87
2021/07/31 12:40:22;;;;;;;;;;;;;;;26.16;nan;99969.41;4986114;28;19928;-86
2021/07/31 12:42:47;;;;;;;;;;;;;;;25.99;nan;99958.00;4962240;28;20012;-87
2021/07/31 12:45:15;;;;;;;;;;;;;;;25.84;nan;99953.34;4962735;28;19914;-88
2021/07/31 12:47:40;;;;;;;;;;;;;;;25.64;nan;99957.59;4985390;28;19918;-87
2021/07/31 12:50:06;;;;;;;;;;;;;;;25.69;nan;99962.22;4998544;28;20381;-86
2021/07/31 12:52:31;;;;;;;;;;;;;;;25.88;nan;99962.56;4976391;28;19937;-86
2021/07/31 12:54:57;;;;;;;;;;;;;;;25.68;nan;99957.91;4962268;28;20165;-87
2021/07/31 12:57:22;;;;;;;;;;;;;;;25.89;nan;99961.50;4978788;28;20390;-89
2021/07/31 12:59:47;;;;;;;;;;;;;;;25.78;nan;99963.34;4979225;28;19933;-88
2021/07/31 13:02:12;;;;;;;;;;;;;;;25.63;nan;99969.53;4961310;28;20012;-88
2021/07/31 13:04:38;;;;;;;;;;;;;;;25.54;nan;99964.88;4970772;28;20013;-86